sensor_id;sensor_type;location;lat;lon;timestamp;temperature;humidity
16879;DHT22;8556;52.218;9.884;2024-03-06T00:01:44;4.40;1.00
16879;DHT22;8556;52.218;9.884;2024-03-06T00:04:11;4.40;1.00
16879;DHT22;8556;52.218;9.884;2024-03-06T00:06:39;4.50;1.00
16879;DHT22;8556;52.218;9.884;2024-03-06T00:09:06;4.50;1.00
16879;DHT22;8556;52.218;9.884;2024-03-06T00:11:33;4.50;1.00
16879;DHT22;8556;52.218;9.884;2024-03-06T00:14:02;4.50;1.00
16879;DHT22;8556;52.218;9.884;2024-03-06T00:16:30;4.40;1.00
16879;DHT22;8556;52.218;9.884;2024-03-06T00:18:57;4.50;1.00
16879;DHT22;8556;52.218;9.884;2024-03-06T00:21:24;4.50;1.00
16879;DHT22;8556;52.218;9.884;2024-03-06T00:23:52;4.50;1.00
16879;DHT22;8556;52.218;9.884;2024-03-06T00:26:19;4.50;1.00
16879;DHT22;8556;52.218;9.884;2024-03-06T00:28:45;4.50;1.00
16879;DHT22;8556;52.218;9.884;2024-03-06T00:31:12;4.50;1.00
16879;DHT22;8556;52.218;9.884;2024-03-06T00:33:40;4.50;1.00
16879;DHT22;8556;52.218;9.884;2024-03-06T00:36:06;4.50;32.10
16879;DHT22;8556;52.218;9.884;2024-03-06T00:38:33;4.50;36.60
16879;DHT22;8556;52.218;9.884;2024-03-06T00:41:01;4.40;1.00
16879;DHT22;8556;52.218;9.884;2024-03-06T00:43:29;4.40;24.30
16879;DHT22;8556;52.218;9.884;2024-03-06T00:45:56;4.40;96.70
16879;DHT22;8556;52.218;9.884;2024-03-06T00:48:25;4.50;94.30
16879;DHT22;8556;52.218;9.884;2024-03-06T00:50:52;4.40;99.90
16879;DHT22;8556;52.218;9.884;2024-03-06T00:53:18;4.40;99.90
16879;DHT22;8556;52.218;9.884;2024-03-06T00:55:45;4.40;99.90
16879;DHT22;8556;52.218;9.884;2024-03-06T00:58:13;4.40;99.90
16879;DHT22;8556;52.218;9.884;2024-03-06T01:00:40;4.40;99.90
16879;DHT22;8556;52.218;9.884;2024-03-06T01:03:07;4.40;99.90
16879;DHT22;8556;52.218;9.884;2024-03-06T01:05:34;4.40;99.90
16879;DHT22;8556;52.218;9.884;2024-03-06T01:08:00;4.40;99.90
16879;DHT22;8556;52.218;9.884;2024-03-06T01:10:27;4.40;99.90
16879;DHT22;8556;52.218;9.884;2024-03-06T01:12:54;4.40;11.80
16879;DHT22;8556;52.218;9.884;2024-03-06T01:15:22;4.50;40.60
16879;DHT22;8556;52.218;9.884;2024-03-06T01:17:49;4.40;99.90
16879;DHT22;8556;52.218;9.884;2024-03-06T01:20:16;4.60;99.90
16879;DHT22;8556;52.218;9.884;2024-03-06T01:22:43;4.40;99.90
16879;DHT22;8556;52.218;9.884;2024-03-06T01:25:11;4.50;99.90
16879;DHT22;8556;52.218;9.884;2024-03-06T01:27:38;4.50;99.90
16879;DHT22;8556;52.218;9.884;2024-03-06T01:30:06;4.50;99.90
16879;DHT22;8556;52.218;9.884;2024-03-06T01:32:34;4.50;99.90
16879;DHT22;8556;52.218;9.884;2024-03-06T01:35:01;4.50;99.90
16879;DHT22;8556;52.218;9.884;2024-03-06T01:37:27;4.50;99.90
16879;DHT22;8556;52.218;9.884;2024-03-06T01:39:54;4.50;99.90
16879;DHT22;8556;52.218;9.884;2024-03-06T01:42:21;4.50;99.90
16879;DHT22;8556;52.218;9.884;2024-03-06T01:44:48;4.50;99.90
16879;DHT22;8556;52.218;9.884;2024-03-06T01:47:15;4.50;99.90
16879;DHT22;8556;52.218;9.884;2024-03-06T01:49:43;4.50;1.00
16879;DHT22;8556;52.218;9.884;2024-03-06T01:52:12;4.40;1.00
16879;DHT22;8556;52.218;9.884;2024-03-06T01:54:41;4.40;1.00
16879;DHT22;8556;52.218;9.884;2024-03-06T01:57:08;4.50;1.00
16879;DHT22;8556;52.218;9.884;2024-03-06T01:59:39;4.50;1.00
16879;DHT22;8556;52.218;9.884;2024-03-06T02:02:06;4.40;1.00
16879;DHT22;8556;52.218;9.884;2024-03-06T02:04:34;4.50;1.00
16879;DHT22;8556;52.218;9.884;2024-03-06T02:07:02;4.40;1.00
16879;DHT22;8556;52.218;9.884;2024-03-06T02:09:29;4.50;1.00
16879;DHT22;8556;52.218;9.884;2024-03-06T02:11:56;4.40;1.00
16879;DHT22;8556;52.218;9.884;2024-03-06T02:14:24;4.50;1.00
16879;DHT22;8556;52.218;9.884;2024-03-06T02:16:52;4.40;1.00
16879;DHT22;8556;52.218;9.884;2024-03-06T02:19:18;4.40;1.00
16879;DHT22;8556;52.218;9.884;2024-03-06T02:21:46;4.60;1.00
16879;DHT22;8556;52.218;9.884;2024-03-06T02:24:13;4.50;99.90
16879;DHT22;8556;52.218;9.884;2024-03-06T02:26:40;4.50;1.00
16879;DHT22;8556;52.218;9.884;2024-03-06T02:29:08;4.50;1.00
16879;DHT22;8556;52.218;9.884;2024-03-06T02:31:36;4.40;1.00
16879;DHT22;8556;52.218;9.884;2024-03-06T02:34:04;4.50;1.00
16879;DHT22;8556;52.218;9.884;2024-03-06T02:36:31;4.50;1.00
16879;DHT22;8556;52.218;9.884;2024-03-06T02:39:00;4.50;1.00
16879;DHT22;8556;52.218;9.884;2024-03-06T02:41:27;4.40;99.90
16879;DHT22;8556;52.218;9.884;2024-03-06T02:43:54;4.40;99.90
16879;DHT22;8556;52.218;9.884;2024-03-06T02:46:20;4.40;99.90
16879;DHT22;8556;52.218;9.884;2024-03-06T02:48:47;4.40;1.00
16879;DHT22;8556;52.218;9.884;2024-03-06T02:51:18;4.40;1.00
16879;DHT22;8556;52.218;9.884;2024-03-06T02:53:45;4.40;99.90
16879;DHT22;8556;52.218;9.884;2024-03-06T02:56:17;4.40;99.90
16879;DHT22;8556;52.218;9.884;2024-03-06T02:58:43;4.40;1.00
16879;DHT22;8556;52.218;9.884;2024-03-06T03:01:10;4.40;99.90
16879;DHT22;8556;52.218;9.884;2024-03-06T03:03:40;4.40;99.90
16879;DHT22;8556;52.218;9.884;2024-03-06T03:06:07;4.40;99.90
16879;DHT22;8556;52.218;9.884;2024-03-06T03:08:34;4.40;1.00
16879;DHT22;8556;52.218;9.884;2024-03-06T03:11:00;4.40;99.90
16879;DHT22;8556;52.218;9.884;2024-03-06T03:13:29;4.40;99.90
16879;DHT22;8556;52.218;9.884;2024-03-06T03:15:57;4.40;99.90
16879;DHT22;8556;52.218;9.884;2024-03-06T03:18:23;4.40;91.60
16879;DHT22;8556;52.218;9.884;2024-03-06T03:20:50;4.40;99.90
16879;DHT22;8556;52.218;9.884;2024-03-06T03:23:17;4.50;99.90
16879;DHT22;8556;52.218;9.884;2024-03-06T03:25:47;4.40;1.00
16879;DHT22;8556;52.218;9.884;2024-03-06T03:28:15;4.40;1.00
16879;DHT22;8556;52.218;9.884;2024-03-06T03:30:44;4.40;1.00
16879;DHT22;8556;52.218;9.884;2024-03-06T03:33:11;4.40;1.00
16879;DHT22;8556;52.218;9.884;2024-03-06T03:35:37;4.40;1.00
16879;DHT22;8556;52.218;9.884;2024-03-06T03:38:04;4.40;1.00
16879;DHT22;8556;52.218;9.884;2024-03-06T03:40:31;4.40;1.00
16879;DHT22;8556;52.218;9.884;2024-03-06T03:42:58;4.50;1.00
16879;DHT22;8556;52.218;9.884;2024-03-06T03:45:31;4.50;1.00
16879;DHT22;8556;52.218;9.884;2024-03-06T03:48:00;4.50;1.00
16879;DHT22;8556;52.218;9.884;2024-03-06T03:50:28;4.50;1.00
16879;DHT22;8556;52.218;9.884;2024-03-06T03:52:55;4.50;1.00
16879;DHT22;8556;52.218;9.884;2024-03-06T03:55:23;4.40;1.00
16879;DHT22;8556;52.218;9.884;2024-03-06T03:57:51;4.40;1.00
16879;DHT22;8556;52.218;9.884;2024-03-06T04:00:18;4.50;1.00
16879;DHT22;8556;52.218;9.884;2024-03-06T04:02:45;4.50;1.00
16879;DHT22;8556;52.218;9.884;2024-03-06T04:05:13;4.50;1.00
16879;DHT22;8556;52.218;9.884;2024-03-06T04:07:40;4.50;1.00
16879;DHT22;8556;52.218;9.884;2024-03-06T04:10:08;4.50;1.00
16879;DHT22;8556;52.218;9.884;2024-03-06T04:12:36;4.50;1.00
16879;DHT22;8556;52.218;9.884;2024-03-06T04:15:05;4.50;1.00
16879;DHT22;8556;52.218;9.884;2024-03-06T04:17:31;4.50;1.00
16879;DHT22;8556;52.218;9.884;2024-03-06T04:19:58;4.50;1.00
16879;DHT22;8556;52.218;9.884;2024-03-06T04:22:26;4.50;1.00
16879;DHT22;8556;52.218;9.884;2024-03-06T04:24:54;4.40;1.00
16879;DHT22;8556;52.218;9.884;2024-03-06T04:27:24;4.40;1.00
16879;DHT22;8556;52.218;9.884;2024-03-06T04:29:51;4.50;1.00
16879;DHT22;8556;52.218;9.884;2024-03-06T04:32:18;4.40;1.00
16879;DHT22;8556;52.218;9.884;2024-03-06T04:34:44;4.50;10.60
16879;DHT22;8556;52.218;9.884;2024-03-06T04:37:12;4.40;1.00
16879;DHT22;8556;52.218;9.884;2024-03-06T04:39:40;4.40;1.00
16879;DHT22;8556;52.218;9.884;2024-03-06T04:42:07;4.40;1.00
16879;DHT22;8556;52.218;9.884;2024-03-06T04:44:36;4.50;1.00
16879;DHT22;8556;52.218;9.884;2024-03-06T04:47:03;4.50;1.00
16879;DHT22;8556;52.218;9.884;2024-03-06T04:49:33;4.50;1.00
16879;DHT22;8556;52.218;9.884;2024-03-06T04:52:00;4.50;1.00
16879;DHT22;8556;52.218;9.884;2024-03-06T04:54:26;4.40;1.00
16879;DHT22;8556;52.218;9.884;2024-03-06T04:56:55;4.40;1.00
16879;DHT22;8556;52.218;9.884;2024-03-06T04:59:22;4.40;1.00
16879;DHT22;8556;52.218;9.884;2024-03-06T05:01:48;4.40;1.00
16879;DHT22;8556;52.218;9.884;2024-03-06T05:04:15;4.40;1.00
16879;DHT22;8556;52.218;9.884;2024-03-06T05:06:42;4.40;1.00
16879;DHT22;8556;52.218;9.884;2024-03-06T05:09:09;4.40;1.00
16879;DHT22;8556;52.218;9.884;2024-03-06T05:11:37;4.40;1.00
16879;DHT22;8556;52.218;9.884;2024-03-06T05:14:05;4.40;1.00
16879;DHT22;8556;52.218;9.884;2024-03-06T05:16:32;4.40;1.00
16879;DHT22;8556;52.218;9.884;2024-03-06T05:19:00;4.40;1.00
16879;DHT22;8556;52.218;9.884;2024-03-06T05:21:27;4.40;44.80
16879;DHT22;8556;52.218;9.884;2024-03-06T05:23:53;4.40;1.00
16879;DHT22;8556;52.218;9.884;2024-03-06T05:26:20;4.40;1.00
16879;DHT22;8556;52.218;9.884;2024-03-06T05:28:47;4.40;99.90
16879;DHT22;8556;52.218;9.884;2024-03-06T05:31:17;4.30;1.00
16879;DHT22;8556;52.218;9.884;2024-03-06T05:33:47;4.50;99.90
16879;DHT22;8556;52.218;9.884;2024-03-06T05:36:14;4.40;86.00
16879;DHT22;8556;52.218;9.884;2024-03-06T05:38:42;4.40;66.00
16879;DHT22;8556;52.218;9.884;2024-03-06T05:41:09;4.40;93.80
16879;DHT22;8556;52.218;9.884;2024-03-06T05:43:36;4.60;99.90
16879;DHT22;8556;52.218;9.884;2024-03-06T05:46:03;4.40;1.00
16879;DHT22;8556;52.218;9.884;2024-03-06T05:48:31;4.40;99.90
16879;DHT22;8556;52.218;9.884;2024-03-06T05:50:58;4.40;1.00
16879;DHT22;8556;52.218;9.884;2024-03-06T05:53:25;4.40;1.00
16879;DHT22;8556;52.218;9.884;2024-03-06T05:55:52;4.30;99.90
16879;DHT22;8556;52.218;9.884;2024-03-06T05:58:20;4.30;99.90
16879;DHT22;8556;52.218;9.884;2024-03-06T06:00:47;4.30;99.90
16879;DHT22;8556;52.218;9.884;2024-03-06T06:03:14;4.20;99.90
16879;DHT22;8556;52.218;9.884;2024-03-06T06:05:42;4.20;99.90
16879;DHT22;8556;52.218;9.884;2024-03-06T06:08:09;4.20;99.90
16879;DHT22;8556;52.218;9.884;2024-03-06T06:10:36;4.20;99.90
16879;DHT22;8556;52.218;9.884;2024-03-06T06:13:03;4.20;1.00
16879;DHT22;8556;52.218;9.884;2024-03-06T06:15:31;4.20;1.00
16879;DHT22;8556;52.218;9.884;2024-03-06T06:17:58;4.30;1.00
16879;DHT22;8556;52.218;9.884;2024-03-06T06:20:24;5.00;99.90
16879;DHT22;8556;52.218;9.884;2024-03-06T06:22:53;4.40;1.00
16879;DHT22;8556;52.218;9.884;2024-03-06T06:25:20;4.30;99.90
16879;DHT22;8556;52.218;9.884;2024-03-06T06:27:47;4.30;1.00
16879;DHT22;8556;52.218;9.884;2024-03-06T06:30:15;4.30;99.90
16879;DHT22;8556;52.218;9.884;2024-03-06T06:32:42;4.30;1.00
16879;DHT22;8556;52.218;9.884;2024-03-06T06:35:10;4.30;99.90
16879;DHT22;8556;52.218;9.884;2024-03-06T06:37:38;4.30;99.90
16879;DHT22;8556;52.218;9.884;2024-03-06T06:40:08;4.30;1.00
16879;DHT22;8556;52.218;9.884;2024-03-06T06:42:44;4.30;99.90
16879;DHT22;8556;52.218;9.884;2024-03-06T06:45:12;4.30;99.90
16879;DHT22;8556;52.218;9.884;2024-03-06T06:47:39;4.30;1.00
16879;DHT22;8556;52.218;9.884;2024-03-06T06:50:07;4.40;99.90
16879;DHT22;8556;52.218;9.884;2024-03-06T06:52:34;4.40;99.90
16879;DHT22;8556;52.218;9.884;2024-03-06T06:55:01;4.40;99.90
16879;DHT22;8556;52.218;9.884;2024-03-06T06:57:30;4.40;99.90
16879;DHT22;8556;52.218;9.884;2024-03-06T06:59:58;4.40;99.90
16879;DHT22;8556;52.218;9.884;2024-03-06T07:02:25;4.50;99.90
16879;DHT22;8556;52.218;9.884;2024-03-06T07:04:52;4.40;91.90
16879;DHT22;8556;52.218;9.884;2024-03-06T07:07:19;4.40;99.90
16879;DHT22;8556;52.218;9.884;2024-03-06T07:09:45;4.50;99.90
16879;DHT22;8556;52.218;9.884;2024-03-06T07:12:12;4.80;99.90
16879;DHT22;8556;52.218;9.884;2024-03-06T07:14:40;4.40;99.90
16879;DHT22;8556;52.218;9.884;2024-03-06T07:17:07;4.50;99.90
16879;DHT22;8556;52.218;9.884;2024-03-06T07:19:34;4.50;1.00
16879;DHT22;8556;52.218;9.884;2024-03-06T07:22:01;4.50;1.00
16879;DHT22;8556;52.218;9.884;2024-03-06T07:24:28;4.50;1.00
16879;DHT22;8556;52.218;9.884;2024-03-06T07:26:54;4.50;1.00
16879;DHT22;8556;52.218;9.884;2024-03-06T07:29:21;4.50;1.00
16879;DHT22;8556;52.218;9.884;2024-03-06T07:31:49;4.50;1.00
16879;DHT22;8556;52.218;9.884;2024-03-06T07:34:16;4.60;1.00
16879;DHT22;8556;52.218;9.884;2024-03-06T07:36:43;4.60;1.00
16879;DHT22;8556;52.218;9.884;2024-03-06T07:39:11;4.60;1.00
16879;DHT22;8556;52.218;9.884;2024-03-06T07:41:39;4.60;1.00
16879;DHT22;8556;52.218;9.884;2024-03-06T07:44:07;4.70;1.00
16879;DHT22;8556;52.218;9.884;2024-03-06T07:46:34;4.70;1.00
16879;DHT22;8556;52.218;9.884;2024-03-06T07:49:02;4.60;1.00
16879;DHT22;8556;52.218;9.884;2024-03-06T07:51:30;4.70;1.00
16879;DHT22;8556;52.218;9.884;2024-03-06T07:53:57;4.60;1.00
16879;DHT22;8556;52.218;9.884;2024-03-06T07:56:24;4.70;1.00
16879;DHT22;8556;52.218;9.884;2024-03-06T07:58:51;4.70;99.90
16879;DHT22;8556;52.218;9.884;2024-03-06T08:01:19;4.70;1.00
16879;DHT22;8556;52.218;9.884;2024-03-06T08:03:46;4.70;1.00
16879;DHT22;8556;52.218;9.884;2024-03-06T08:06:14;4.70;12.20
16879;DHT22;8556;52.218;9.884;2024-03-06T08:08:41;5.00;1.00
16879;DHT22;8556;52.218;9.884;2024-03-06T08:11:09;4.70;1.00
16879;DHT22;8556;52.218;9.884;2024-03-06T08:13:37;4.70;99.90
16879;DHT22;8556;52.218;9.884;2024-03-06T08:16:04;4.70;99.90
16879;DHT22;8556;52.218;9.884;2024-03-06T08:18:32;4.70;1.00
16879;DHT22;8556;52.218;9.884;2024-03-06T08:21:00;4.70;1.00
16879;DHT22;8556;52.218;9.884;2024-03-06T08:23:29;4.70;1.00
16879;DHT22;8556;52.218;9.884;2024-03-06T08:25:56;4.70;1.00
16879;DHT22;8556;52.218;9.884;2024-03-06T08:28:22;4.80;99.90
16879;DHT22;8556;52.218;9.884;2024-03-06T08:30:49;4.70;1.00
16879;DHT22;8556;52.218;9.884;2024-03-06T08:33:17;4.80;99.90
16879;DHT22;8556;52.218;9.884;2024-03-06T08:35:46;4.80;1.00
16879;DHT22;8556;52.218;9.884;2024-03-06T08:38:13;4.80;99.90
16879;DHT22;8556;52.218;9.884;2024-03-06T08:40:41;4.90;9.20
16879;DHT22;8556;52.218;9.884;2024-03-06T08:43:11;4.80;34.30
16879;DHT22;8556;52.218;9.884;2024-03-06T08:45:38;4.90;99.90
16879;DHT22;8556;52.218;9.884;2024-03-06T08:48:05;5.00;99.90
16879;DHT22;8556;52.218;9.884;2024-03-06T08:50:32;4.90;1.00
16879;DHT22;8556;52.218;9.884;2024-03-06T08:52:59;4.90;1.00
16879;DHT22;8556;52.218;9.884;2024-03-06T08:55:27;4.90;1.00
16879;DHT22;8556;52.218;9.884;2024-03-06T08:57:57;4.90;1.00
16879;DHT22;8556;52.218;9.884;2024-03-06T09:00:24;5.20;1.00
16879;DHT22;8556;52.218;9.884;2024-03-06T09:02:52;4.90;1.00
16879;DHT22;8556;52.218;9.884;2024-03-06T09:05:19;5.00;1.00
16879;DHT22;8556;52.218;9.884;2024-03-06T09:07:47;4.90;1.00
16879;DHT22;8556;52.218;9.884;2024-03-06T09:10:14;5.40;1.00
16879;DHT22;8556;52.218;9.884;2024-03-06T09:12:41;5.00;1.00
16879;DHT22;8556;52.218;9.884;2024-03-06T09:15:09;5.10;1.00
16879;DHT22;8556;52.218;9.884;2024-03-06T09:17:37;5.10;1.00
16879;DHT22;8556;52.218;9.884;2024-03-06T09:20:04;5.10;1.00
16879;DHT22;8556;52.218;9.884;2024-03-06T09:22:35;5.20;1.00
16879;DHT22;8556;52.218;9.884;2024-03-06T09:25:03;5.20;1.00
16879;DHT22;8556;52.218;9.884;2024-03-06T09:27:30;5.50;1.00
16879;DHT22;8556;52.218;9.884;2024-03-06T09:29:57;5.40;1.00
16879;DHT22;8556;52.218;9.884;2024-03-06T09:32:25;5.40;1.00
16879;DHT22;8556;52.218;9.884;2024-03-06T09:34:52;5.40;1.00
16879;DHT22;8556;52.218;9.884;2024-03-06T09:37:19;5.40;99.90
16879;DHT22;8556;52.218;9.884;2024-03-06T09:39:46;5.50;99.90
16879;DHT22;8556;52.218;9.884;2024-03-06T09:42:13;5.60;99.90
16879;DHT22;8556;52.218;9.884;2024-03-06T09:44:40;5.70;99.90
16879;DHT22;8556;52.218;9.884;2024-03-06T09:47:07;5.70;99.90
16879;DHT22;8556;52.218;9.884;2024-03-06T09:49:38;5.80;99.90
16879;DHT22;8556;52.218;9.884;2024-03-06T09:52:06;5.90;99.90
16879;DHT22;8556;52.218;9.884;2024-03-06T09:54:32;5.90;99.90
16879;DHT22;8556;52.218;9.884;2024-03-06T09:57:00;5.90;99.90
16879;DHT22;8556;52.218;9.884;2024-03-06T09:59:27;6.00;99.90
16879;DHT22;8556;52.218;9.884;2024-03-06T10:01:55;6.10;1.00
16879;DHT22;8556;52.218;9.884;2024-03-06T10:04:23;6.30;38.60
16879;DHT22;8556;52.218;9.884;2024-03-06T10:06:53;6.30;54.60
16879;DHT22;8556;52.218;9.884;2024-03-06T10:09:20;6.30;1.00
16879;DHT22;8556;52.218;9.884;2024-03-06T10:11:47;6.30;1.00
16879;DHT22;8556;52.218;9.884;2024-03-06T10:14:15;6.50;1.00
16879;DHT22;8556;52.218;9.884;2024-03-06T10:16:52;6.60;24.30
16879;DHT22;8556;52.218;9.884;2024-03-06T10:19:20;6.70;99.90
16879;DHT22;8556;52.218;9.884;2024-03-06T10:21:47;6.80;1.00
16879;DHT22;8556;52.218;9.884;2024-03-06T10:24:18;7.00;1.00
16879;DHT22;8556;52.218;9.884;2024-03-06T10:26:46;6.90;1.00
16879;DHT22;8556;52.218;9.884;2024-03-06T10:29:15;7.10;1.00
16879;DHT22;8556;52.218;9.884;2024-03-06T10:31:48;7.20;1.00
16879;DHT22;8556;52.218;9.884;2024-03-06T10:34:15;7.20;99.90
16879;DHT22;8556;52.218;9.884;2024-03-06T10:36:42;7.20;99.90
16879;DHT22;8556;52.218;9.884;2024-03-06T10:39:11;7.20;99.90
16879;DHT22;8556;52.218;9.884;2024-03-06T10:41:40;7.40;82.30
16879;DHT22;8556;52.218;9.884;2024-03-06T10:44:11;7.50;40.40
16879;DHT22;8556;52.218;9.884;2024-03-06T10:46:41;7.50;1.00
16879;DHT22;8556;52.218;9.884;2024-03-06T10:49:11;7.60;1.00
16879;DHT22;8556;52.218;9.884;2024-03-06T10:51:39;7.80;1.00
16879;DHT22;8556;52.218;9.884;2024-03-06T10:54:08;7.90;1.00
16879;DHT22;8556;52.218;9.884;2024-03-06T10:56:40;7.90;1.00
16879;DHT22;8556;52.218;9.884;2024-03-06T10:59:10;7.80;1.00
16879;DHT22;8556;52.218;9.884;2024-03-06T11:01:39;7.80;1.00
16879;DHT22;8556;52.218;9.884;2024-03-06T11:04:06;7.80;1.00
16879;DHT22;8556;52.218;9.884;2024-03-06T11:06:33;7.70;1.00
16879;DHT22;8556;52.218;9.884;2024-03-06T11:09:00;7.70;1.00
16879;DHT22;8556;52.218;9.884;2024-03-06T11:11:27;7.90;1.00
16879;DHT22;8556;52.218;9.884;2024-03-06T11:14:00;7.90;1.00
16879;DHT22;8556;52.218;9.884;2024-03-06T11:16:28;8.00;1.00
16879;DHT22;8556;52.218;9.884;2024-03-06T11:19:05;8.00;1.00
16879;DHT22;8556;52.218;9.884;2024-03-06T11:21:33;8.10;1.00
16879;DHT22;8556;52.218;9.884;2024-03-06T11:24:13;8.30;1.00
16879;DHT22;8556;52.218;9.884;2024-03-06T11:26:42;8.20;1.00
16879;DHT22;8556;52.218;9.884;2024-03-06T11:29:11;8.00;99.90
16879;DHT22;8556;52.218;9.884;2024-03-06T11:31:38;8.00;99.90
16879;DHT22;8556;52.218;9.884;2024-03-06T11:34:11;7.90;99.90
16879;DHT22;8556;52.218;9.884;2024-03-06T11:36:41;7.90;99.90
16879;DHT22;8556;52.218;9.884;2024-03-06T11:39:08;8.00;99.90
16879;DHT22;8556;52.218;9.884;2024-03-06T11:41:47;8.00;99.90
16879;DHT22;8556;52.218;9.884;2024-03-06T11:44:17;8.00;99.90
16879;DHT22;8556;52.218;9.884;2024-03-06T11:46:45;7.80;99.90
16879;DHT22;8556;52.218;9.884;2024-03-06T11:49:16;8.00;99.90
16879;DHT22;8556;52.218;9.884;2024-03-06T11:51:46;8.00;99.90
16879;DHT22;8556;52.218;9.884;2024-03-06T11:54:13;8.00;99.90
16879;DHT22;8556;52.218;9.884;2024-03-06T11:56:41;8.00;99.90
16879;DHT22;8556;52.218;9.884;2024-03-06T11:59:07;8.20;99.90
16879;DHT22;8556;52.218;9.884;2024-03-06T12:01:36;8.20;99.90
16879;DHT22;8556;52.218;9.884;2024-03-06T12:04:04;8.20;99.90
16879;DHT22;8556;52.218;9.884;2024-03-06T12:06:32;8.20;99.90
16879;DHT22;8556;52.218;9.884;2024-03-06T12:08:59;8.30;99.90
16879;DHT22;8556;52.218;9.884;2024-03-06T12:11:26;8.20;99.90
16879;DHT22;8556;52.218;9.884;2024-03-06T12:13:54;8.20;99.90
16879;DHT22;8556;52.218;9.884;2024-03-06T12:16:21;8.30;99.90
16879;DHT22;8556;52.218;9.884;2024-03-06T12:18:55;8.10;99.90
16879;DHT22;8556;52.218;9.884;2024-03-06T12:21:27;8.10;99.90
16879;DHT22;8556;52.218;9.884;2024-03-06T12:24:02;8.20;99.90
16879;DHT22;8556;52.218;9.884;2024-03-06T12:26:30;8.30;99.90
16879;DHT22;8556;52.218;9.884;2024-03-06T12:29:07;8.20;99.90
16879;DHT22;8556;52.218;9.884;2024-03-06T12:31:35;8.30;99.90
16879;DHT22;8556;52.218;9.884;2024-03-06T12:34:04;8.30;99.90
16879;DHT22;8556;52.218;9.884;2024-03-06T12:36:32;8.50;99.90
16879;DHT22;8556;52.218;9.884;2024-03-06T12:39:01;8.30;99.90
16879;DHT22;8556;52.218;9.884;2024-03-06T12:41:28;8.40;99.90
16879;DHT22;8556;52.218;9.884;2024-03-06T12:43:55;8.30;99.90
16879;DHT22;8556;52.218;9.884;2024-03-06T12:46:23;8.30;99.90
16879;DHT22;8556;52.218;9.884;2024-03-06T12:48:51;8.70;99.90
16879;DHT22;8556;52.218;9.884;2024-03-06T12:51:20;8.40;99.90
16879;DHT22;8556;52.218;9.884;2024-03-06T12:53:47;8.50;99.90
16879;DHT22;8556;52.218;9.884;2024-03-06T12:56:14;8.60;99.90
16879;DHT22;8556;52.218;9.884;2024-03-06T12:58:41;8.50;99.90
16879;DHT22;8556;52.218;9.884;2024-03-06T13:01:08;8.50;99.90
16879;DHT22;8556;52.218;9.884;2024-03-06T13:03:35;8.50;99.90
16879;DHT22;8556;52.218;9.884;2024-03-06T13:06:03;8.50;99.90
16879;DHT22;8556;52.218;9.884;2024-03-06T13:08:31;8.50;88.80
16879;DHT22;8556;52.218;9.884;2024-03-06T13:10:58;8.60;99.90
16879;DHT22;8556;52.218;9.884;2024-03-06T13:13:25;8.80;99.90
16879;DHT22;8556;52.218;9.884;2024-03-06T13:15:54;8.80;99.90
16879;DHT22;8556;52.218;9.884;2024-03-06T13:18:21;8.90;99.90
16879;DHT22;8556;52.218;9.884;2024-03-06T13:20:48;8.90;99.90
16879;DHT22;8556;52.218;9.884;2024-03-06T13:23:14;8.60;99.90
16879;DHT22;8556;52.218;9.884;2024-03-06T13:25:43;8.50;99.90
16879;DHT22;8556;52.218;9.884;2024-03-06T13:28:11;8.50;99.90
16879;DHT22;8556;52.218;9.884;2024-03-06T13:30:38;8.40;99.90
16879;DHT22;8556;52.218;9.884;2024-03-06T13:33:05;8.40;99.90
16879;DHT22;8556;52.218;9.884;2024-03-06T13:35:33;8.40;99.90
16879;DHT22;8556;52.218;9.884;2024-03-06T13:37:59;8.30;99.90
16879;DHT22;8556;52.218;9.884;2024-03-06T13:40:28;8.20;99.90
16879;DHT22;8556;52.218;9.884;2024-03-06T13:42:56;8.40;99.90
16879;DHT22;8556;52.218;9.884;2024-03-06T13:45:23;8.20;99.90
16879;DHT22;8556;52.218;9.884;2024-03-06T13:47:50;8.30;99.90
16879;DHT22;8556;52.218;9.884;2024-03-06T13:50:17;8.40;99.90
16879;DHT22;8556;52.218;9.884;2024-03-06T13:52:44;8.30;99.90
16879;DHT22;8556;52.218;9.884;2024-03-06T13:55:11;8.40;99.90
16879;DHT22;8556;52.218;9.884;2024-03-06T13:57:39;8.30;99.00
16879;DHT22;8556;52.218;9.884;2024-03-06T14:00:09;8.40;99.90
16879;DHT22;8556;52.218;9.884;2024-03-06T14:02:42;8.40;99.90
16879;DHT22;8556;52.218;9.884;2024-03-06T14:05:09;8.40;99.90
16879;DHT22;8556;52.218;9.884;2024-03-06T14:07:36;8.50;99.90
16879;DHT22;8556;52.218;9.884;2024-03-06T14:10:03;8.50;99.90
16879;DHT22;8556;52.218;9.884;2024-03-06T14:12:30;8.40;99.90
16879;DHT22;8556;52.218;9.884;2024-03-06T14:14:57;8.40;99.90
16879;DHT22;8556;52.218;9.884;2024-03-06T14:17:25;8.60;99.90
16879;DHT22;8556;52.218;9.884;2024-03-06T14:19:51;8.50;99.90
16879;DHT22;8556;52.218;9.884;2024-03-06T14:22:18;8.40;99.90
16879;DHT22;8556;52.218;9.884;2024-03-06T14:24:45;8.40;99.90
16879;DHT22;8556;52.218;9.884;2024-03-06T14:27:12;8.40;99.90
16879;DHT22;8556;52.218;9.884;2024-03-06T14:29:39;8.50;99.90
16879;DHT22;8556;52.218;9.884;2024-03-06T14:32:06;8.50;99.90
16879;DHT22;8556;52.218;9.884;2024-03-06T14:34:35;8.60;99.90
16879;DHT22;8556;52.218;9.884;2024-03-06T14:37:02;8.60;90.60
16879;DHT22;8556;52.218;9.884;2024-03-06T14:39:29;8.60;99.90
16879;DHT22;8556;52.218;9.884;2024-03-06T14:41:56;8.60;73.10
16879;DHT22;8556;52.218;9.884;2024-03-06T14:44:22;8.60;80.70
16879;DHT22;8556;52.218;9.884;2024-03-06T14:46:49;8.60;99.90
16879;DHT22;8556;52.218;9.884;2024-03-06T14:49:16;8.60;44.70
16879;DHT22;8556;52.218;9.884;2024-03-06T14:51:44;8.70;77.80
16879;DHT22;8556;52.218;9.884;2024-03-06T14:54:11;8.70;99.90
16879;DHT22;8556;52.218;9.884;2024-03-06T14:56:38;8.60;49.20
16879;DHT22;8556;52.218;9.884;2024-03-06T14:59:05;8.70;56.20
16879;DHT22;8556;52.218;9.884;2024-03-06T15:01:32;8.70;27.30
16879;DHT22;8556;52.218;9.884;2024-03-06T15:03:59;8.70;86.20
16879;DHT22;8556;52.218;9.884;2024-03-06T15:06:26;8.70;87.10
16879;DHT22;8556;52.218;9.884;2024-03-06T15:08:54;9.30;99.90
16879;DHT22;8556;52.218;9.884;2024-03-06T15:11:21;9.60;48.60
16879;DHT22;8556;52.218;9.884;2024-03-06T15:13:49;9.50;8.10
16879;DHT22;8556;52.218;9.884;2024-03-06T15:16:16;9.40;1.00
16879;DHT22;8556;52.218;9.884;2024-03-06T15:18:43;9.30;1.00
16879;DHT22;8556;52.218;9.884;2024-03-06T15:21:09;9.10;1.00
16879;DHT22;8556;52.218;9.884;2024-03-06T15:23:38;8.90;7.50
16879;DHT22;8556;52.218;9.884;2024-03-06T15:26:06;9.00;7.90
16879;DHT22;8556;52.218;9.884;2024-03-06T15:28:33;8.90;1.00
16879;DHT22;8556;52.218;9.884;2024-03-06T15:31:00;8.80;1.00
16879;DHT22;8556;52.218;9.884;2024-03-06T15:33:29;8.70;1.00
16879;DHT22;8556;52.218;9.884;2024-03-06T15:35:56;8.70;22.90
16879;DHT22;8556;52.218;9.884;2024-03-06T15:38:24;8.70;58.90
16879;DHT22;8556;52.218;9.884;2024-03-06T15:40:51;8.60;80.70
16879;DHT22;8556;52.218;9.884;2024-03-06T15:43:19;8.60;99.90
16879;DHT22;8556;52.218;9.884;2024-03-06T15:45:47;8.50;99.90
16879;DHT22;8556;52.218;9.884;2024-03-06T15:48:13;8.50;90.20
16879;DHT22;8556;52.218;9.884;2024-03-06T15:50:40;8.50;99.90
16879;DHT22;8556;52.218;9.884;2024-03-06T15:53:07;8.50;99.90
16879;DHT22;8556;52.218;9.884;2024-03-06T15:55:34;8.50;99.90
16879;DHT22;8556;52.218;9.884;2024-03-06T15:58:02;8.60;99.90
16879;DHT22;8556;52.218;9.884;2024-03-06T16:00:30;8.50;99.90
16879;DHT22;8556;52.218;9.884;2024-03-06T16:02:57;8.40;1.00
16879;DHT22;8556;52.218;9.884;2024-03-06T16:05:24;8.40;1.00
16879;DHT22;8556;52.218;9.884;2024-03-06T16:07:56;8.30;1.00
16879;DHT22;8556;52.218;9.884;2024-03-06T16:10:25;8.20;1.00
16879;DHT22;8556;52.218;9.884;2024-03-06T16:12:52;8.10;1.00